createdAt,value
2019-01-25T00:01:18.286Z,30.97
2019-01-25T00:03:45.916Z,32.30
2019-01-25T00:06:13.595Z,32.57
2019-01-25T00:08:41.156Z,31.17
2019-01-25T00:11:08.707Z,33.83
2019-01-25T00:13:36.461Z,32.63
2019-01-25T00:16:04.799Z,31.93
2019-01-25T00:18:32.670Z,32.37
2019-01-25T00:21:00.272Z,32.27
2019-01-25T00:23:27.796Z,32.87
2019-01-25T00:25:55.326Z,32.07
2019-01-25T00:28:22.925Z,32.37
2019-01-25T00:30:50.578Z,33.37
2019-01-25T00:33:19.298Z,32.57
2019-01-25T00:35:46.963Z,31.67
2019-01-25T00:38:14.642Z,31.70
2019-01-25T00:40:42.396Z,30.97
2019-01-25T00:43:10.153Z,30.00
2019-01-25T00:45:37.869Z,30.00
2019-01-25T00:48:05.582Z,30.97
2019-01-25T00:50:33.412Z,31.10
2019-01-25T00:53:01.141Z,30.57
2019-01-25T00:55:28.811Z,31.13
2019-01-25T00:57:56.481Z,30.10
2019-01-25T01:00:25.108Z,31.43
2019-01-25T01:02:55.770Z,31.17
2019-01-25T01:05:23.513Z,31.37
2019-01-25T01:07:51.674Z,30.23
2019-01-25T01:10:21.335Z,32.97
2019-01-25T01:12:49.711Z,31.70
2019-01-25T01:15:17.495Z,32.27
2019-01-25T01:17:45.364Z,30.73
2019-01-25T01:20:15.000Z,30.00
2019-01-25T01:22:42.733Z,30.97
2019-01-25T01:25:11.607Z,31.83
2019-01-25T01:27:39.313Z,32.37
2019-01-25T01:30:09.752Z,31.73
2019-01-25T01:32:37.307Z,31.27
2019-01-25T01:35:05.175Z,31.83
2019-01-25T01:37:32.743Z,31.50
2019-01-25T01:40:00.504Z,31.30
2019-01-25T01:42:28.089Z,30.03
2019-01-25T01:44:55.727Z,32.13
2019-01-25T01:47:23.367Z,30.97
2019-01-25T01:49:51.160Z,31.00
2019-01-25T01:52:18.728Z,31.50
2019-01-25T01:54:46.420Z,32.17
2019-01-25T01:57:13.987Z,29.20
2019-01-25T01:59:44.551Z,31.13
2019-01-25T02:02:12.785Z,31.70
2019-01-25T02:04:40.374Z,31.47
2019-01-25T02:07:08.381Z,30.03
2019-01-25T02:09:36.064Z,30.53
2019-01-25T02:12:03.608Z,29.07
2019-01-25T02:14:31.281Z,30.93
2019-01-25T02:16:58.957Z,30.67
2019-01-25T02:19:26.528Z,29.30
2019-01-25T02:21:54.127Z,30.73
2019-01-25T02:24:21.763Z,31.07
2019-01-25T02:26:49.380Z,31.17
2019-01-25T02:29:17.010Z,31.20
2019-01-25T02:31:44.804Z,31.07
2019-01-25T02:34:12.499Z,30.10
2019-01-25T02:36:41.947Z,28.43
2019-01-25T02:39:09.528Z,29.60
2019-01-25T02:41:37.227Z,30.00
2019-01-25T02:44:04.940Z,29.07
2019-01-25T02:46:32.540Z,29.63
2019-01-25T02:49:00.161Z,28.67
2019-01-25T02:51:27.696Z,28.87
2019-01-25T02:53:55.267Z,29.03
2019-01-25T02:56:22.952Z,27.57
2019-01-25T02:58:50.520Z,28.23
2019-01-25T03:01:18.055Z,28.30
2019-01-25T03:03:45.723Z,29.10
2019-01-25T03:06:13.317Z,28.40
2019-01-25T03:08:40.871Z,27.93
2019-01-25T03:11:08.635Z,29.40
2019-01-25T03:13:36.250Z,29.30
2019-01-25T03:16:03.764Z,29.33
2019-01-25T03:18:31.378Z,29.67
2019-01-25T03:20:58.963Z,28.50
2019-01-25T03:23:26.488Z,28.57
2019-01-25T03:25:56.042Z,28.10
2019-01-25T03:28:23.625Z,30.07
2019-01-25T03:30:51.293Z,28.87
2019-01-25T03:33:18.905Z,31.23
2019-01-25T03:35:46.513Z,28.97
2019-01-25T03:38:14.224Z,27.47
2019-01-25T03:40:42.065Z,27.80
2019-01-25T03:43:09.764Z,27.27
2019-01-25T03:45:37.353Z,26.67
2019-01-25T03:48:05.184Z,28.23
2019-01-25T03:50:32.879Z,28.70
2019-01-25T03:53:00.486Z,29.07
2019-01-25T03:55:28.190Z,27.97
2019-01-25T03:57:55.865Z,28.73
2019-01-25T04:00:26.954Z,28.97
2019-01-25T04:02:54.570Z,28.20
2019-01-25T04:05:22.271Z,27.90
2019-01-25T04:07:49.888Z,28.63
2019-01-25T04:10:19.606Z,26.50
2019-01-25T04:12:47.282Z,26.87
2019-01-25T04:15:22.886Z,27.23
2019-01-25T04:17:50.569Z,27.50
2019-01-25T04:20:18.386Z,27.57
2019-01-25T04:22:46.091Z,27.20
2019-01-25T04:25:15.952Z,29.60
2019-01-25T04:27:43.700Z,29.67
2019-01-25T04:30:14.440Z,29.53
2019-01-25T04:32:42.163Z,29.33
2019-01-25T04:35:09.872Z,29.27
2019-01-25T04:37:37.577Z,30.13
2019-01-25T04:40:07.371Z,30.33
2019-01-25T04:42:35.066Z,29.20
2019-01-25T04:45:03.198Z,31.03
2019-01-25T04:47:30.844Z,29.17
2019-01-25T04:49:58.537Z,31.50
2019-01-25T04:52:26.182Z,30.30
2019-01-25T04:54:53.898Z,30.27
2019-01-25T04:57:21.622Z,30.00
2019-01-25T04:59:49.314Z,29.03
2019-01-25T05:02:17.019Z,29.27
2019-01-25T05:04:44.723Z,31.30
2019-01-25T05:07:12.298Z,31.60
2019-01-25T05:09:40.051Z,30.77
2019-01-25T05:12:07.811Z,29.87
2019-01-25T05:14:35.589Z,30.43
2019-01-25T05:17:03.780Z,32.27
2019-01-25T05:19:38.101Z,32.67
2019-01-25T05:22:06.303Z,31.77
2019-01-25T05:24:34.133Z,31.70
2019-01-25T05:27:03.128Z,31.97
2019-01-25T05:29:53.871Z,32.93
2019-01-25T05:32:21.680Z,32.27
2019-01-25T05:34:49.344Z,33.83
2019-01-25T05:37:17.049Z,31.90
2019-01-25T05:39:44.707Z,33.03
2019-01-25T05:42:12.396Z,32.87
2019-01-25T05:44:39.961Z,33.83
2019-01-25T05:47:10.929Z,34.87
2019-01-25T05:49:38.591Z,34.37
2019-01-25T05:52:10.229Z,34.87
2019-01-25T05:54:37.841Z,36.13
2019-01-25T05:57:05.480Z,35.87
2019-01-25T05:59:33.082Z,34.00
2019-01-25T06:02:00.849Z,36.47
2019-01-25T06:04:33.395Z,36.37
2019-01-25T06:07:01.019Z,40.77
2019-01-25T06:09:28.637Z,41.63
2019-01-25T06:11:56.348Z,41.93
2019-01-25T06:14:23.882Z,42.03
2019-01-25T06:16:51.531Z,43.33
2019-01-25T06:19:19.127Z,40.27
2019-01-25T06:21:46.866Z,42.47
2019-01-25T06:24:14.452Z,43.50
2019-01-25T06:26:44.527Z,43.60
2019-01-25T06:29:12.115Z,43.53
2019-01-25T06:31:39.927Z,43.30
2019-01-25T06:34:08.214Z,43.37
2019-01-25T06:36:35.865Z,41.83
2019-01-25T06:39:06.922Z,47.30
2019-01-25T06:41:34.698Z,46.80
2019-01-25T06:44:02.451Z,43.27
2019-01-25T06:46:30.111Z,46.67
2019-01-25T06:48:57.878Z,47.37
2019-01-25T06:51:25.602Z,48.10
2019-01-25T06:53:53.353Z,49.77
2019-01-25T06:56:21.159Z,49.73
2019-01-25T06:59:06.932Z,52.73
2019-01-25T07:01:54.886Z,55.63
2019-01-25T07:04:22.614Z,56.50
2019-01-25T07:06:50.302Z,53.97
2019-01-25T07:09:18.026Z,55.50
2019-01-25T07:11:51.597Z,58.27
2019-01-25T07:14:15.419Z,54.23
2019-01-25T07:16:43.152Z,55.97
2019-01-25T07:19:10.815Z,56.13
2019-01-25T07:21:38.392Z,57.50
2019-01-25T07:24:06.149Z,57.43
2019-01-25T07:26:33.895Z,55.60
2019-01-25T07:29:01.541Z,56.80
2019-01-25T07:31:29.129Z,55.40
2019-01-25T07:33:56.800Z,56.93
2019-01-25T07:36:24.499Z,59.83
2019-01-25T07:38:52.155Z,56.37
2019-01-25T07:41:19.895Z,57.87
2019-01-25T07:43:47.622Z,55.70
2019-01-25T07:46:15.265Z,59.17
2019-01-25T07:48:43.087Z,58.87
2019-01-25T07:51:10.624Z,59.40
2019-01-25T07:53:38.289Z,57.67
2019-01-25T07:56:05.958Z,56.50
2019-01-25T07:58:33.694Z,56.50
2019-01-25T08:01:01.243Z,56.50
2019-01-25T08:03:28.988Z,56.00
2019-01-25T08:05:56.641Z,55.93
2019-01-25T08:08:24.314Z,55.50
2019-01-25T08:10:51.923Z,53.90
2019-01-25T08:13:19.616Z,53.73
2019-01-25T08:15:47.243Z,55.67
2019-01-25T08:18:15.020Z,51.30
2019-01-25T08:20:42.584Z,51.30
2019-01-25T08:23:10.320Z,51.03
2019-01-25T08:25:38.073Z,51.73
2019-01-25T08:28:05.767Z,52.70
2019-01-25T08:30:33.352Z,50.37
2019-01-25T08:33:01.167Z,53.13
2019-01-25T08:35:28.819Z,53.07
2019-01-25T08:37:56.502Z,53.03
2019-01-25T08:40:24.202Z,53.67
2019-01-25T08:42:51.970Z,53.87
2019-01-25T08:45:19.798Z,53.37
2019-01-25T08:47:47.549Z,50.33
2019-01-25T08:50:17.446Z,48.30
2019-01-25T08:52:45.237Z,49.57
2019-01-25T08:55:13.625Z,49.20
2019-01-25T08:57:41.417Z,48.73
2019-01-25T09:00:12.375Z,46.63
2019-01-25T09:02:40.087Z,46.87
2019-01-25T09:05:08.748Z,46.50
2019-01-25T09:07:36.384Z,45.37
2019-01-25T09:10:06.096Z,45.57
2019-01-25T09:12:33.745Z,49.03
2019-01-25T09:15:01.357Z,48.23
2019-01-25T09:17:30.417Z,48.40
2019-01-25T09:19:58.026Z,43.07
2019-01-25T09:22:25.738Z,45.03
2019-01-25T09:24:53.339Z,46.03
2019-01-25T09:27:21.014Z,47.27
2019-01-25T09:29:48.686Z,49.20
2019-01-25T09:32:16.407Z,49.83
2019-01-25T09:34:43.983Z,49.43
2019-01-25T09:37:11.579Z,51.03
2019-01-25T09:39:39.142Z,52.37
2019-01-25T09:42:09.673Z,52.10
2019-01-25T09:44:37.365Z,51.17
2019-01-25T09:47:04.987Z,49.93
2019-01-25T09:49:32.576Z,52.33
2019-01-25T09:52:00.189Z,57.30
2019-01-25T09:54:27.730Z,57.13
2019-01-25T09:56:55.438Z,57.67
2019-01-25T09:59:23.020Z,54.13
2019-01-25T10:01:50.778Z,55.73
2019-01-25T10:04:18.545Z,53.73
2019-01-25T10:06:46.719Z,54.03
2019-01-25T10:09:14.283Z,53.43
2019-01-25T10:11:41.992Z,50.67
2019-01-25T10:14:09.609Z,49.27
2019-01-25T10:16:37.240Z,51.20
2019-01-25T10:19:04.910Z,48.30
2019-01-25T10:21:32.576Z,47.53
2019-01-25T10:24:00.151Z,46.97
2019-01-25T10:26:27.948Z,45.43
2019-01-25T10:28:55.511Z,45.17
2019-01-25T10:31:23.234Z,45.30
2019-01-25T10:33:52.211Z,45.30
2019-01-25T10:36:19.897Z,47.17
2019-01-25T10:38:47.501Z,45.93
2019-01-25T10:41:15.149Z,45.63
2019-01-25T10:43:42.771Z,45.97
2019-01-25T10:46:11.402Z,44.93
2019-01-25T10:48:38.982Z,48.23
2019-01-25T10:51:06.681Z,45.63
2019-01-25T10:53:34.319Z,44.17
2019-01-25T10:56:02.114Z,44.93
2019-01-25T10:58:29.824Z,43.60
2019-01-25T11:00:57.459Z,41.97
2019-01-25T11:03:25.093Z,41.87
2019-01-25T11:05:52.865Z,44.17
2019-01-25T11:08:20.582Z,43.70
2019-01-25T11:10:48.270Z,42.77
2019-01-25T11:13:15.860Z,44.83
2019-01-25T11:15:43.556Z,46.20
2019-01-25T11:18:11.242Z,45.90
2019-01-25T11:20:38.927Z,46.13
2019-01-25T11:23:06.535Z,46.30
2019-01-25T11:25:36.564Z,46.63
2019-01-25T11:28:04.408Z,47.30
2019-01-25T11:30:32.246Z,46.43
2019-01-25T11:32:59.880Z,47.00
2019-01-25T11:35:27.630Z,45.13
2019-01-25T11:37:55.200Z,44.00
2019-01-25T11:40:25.321Z,45.23
2019-01-25T11:42:53.797Z,44.67
2019-01-25T11:45:21.487Z,44.83
2019-01-25T11:47:49.246Z,46.63
2019-01-25T11:50:17.261Z,46.93
2019-01-25T11:52:44.923Z,44.83
2019-01-25T11:55:12.697Z,44.30
2019-01-25T11:57:40.333Z,45.03
2019-01-25T12:00:15.039Z,46.13
2019-01-25T12:02:45.127Z,44.73
2019-01-25T12:05:13.824Z,44.50
2019-01-25T12:07:41.575Z,45.67
2019-01-25T12:10:10.841Z,43.57
2019-01-25T12:12:38.414Z,45.80
2019-01-25T12:15:09.063Z,46.43
2019-01-25T12:17:36.768Z,46.40
2019-01-25T12:20:06.378Z,48.67
2019-01-25T12:22:38.642Z,47.27
2019-01-25T12:25:07.311Z,46.73
2019-01-25T12:27:34.910Z,48.67
2019-01-25T12:30:03.735Z,47.33
2019-01-25T12:32:31.541Z,46.07
2019-01-25T12:34:59.228Z,46.63
2019-01-25T12:37:26.758Z,44.00
2019-01-25T12:39:54.491Z,42.73
2019-01-25T12:42:22.038Z,38.53
2019-01-25T12:44:49.832Z,38.20
2019-01-25T12:47:17.358Z,35.43
2019-01-25T12:49:45.006Z,34.07
2019-01-25T12:52:12.671Z,38.80
2019-01-25T12:54:40.317Z,38.67
2019-01-25T12:57:07.931Z,36.97
2019-01-25T12:59:35.981Z,38.30
2019-01-25T13:02:03.787Z,36.87
2019-01-25T13:04:31.482Z,36.07
2019-01-25T13:06:59.036Z,36.10
2019-01-25T13:09:26.615Z,33.47
2019-01-25T13:11:54.468Z,35.30
2019-01-25T13:14:22.041Z,35.93
2019-01-25T13:16:50.846Z,34.93
2019-01-25T13:19:18.552Z,34.50
2019-01-25T13:21:46.177Z,34.37
2019-01-25T13:24:13.752Z,32.50
2019-01-25T13:26:41.518Z,33.00
2019-01-25T13:29:09.100Z,33.20
2019-01-25T13:31:36.830Z,33.13
2019-01-25T13:34:04.707Z,33.60
2019-01-25T13:36:32.637Z,33.00
2019-01-25T13:39:00.742Z,33.90
2019-01-25T13:41:30.523Z,32.50
2019-01-25T13:43:58.714Z,32.80
2019-01-25T13:46:28.296Z,31.70
2019-01-25T13:48:56.286Z,32.90
2019-01-25T13:51:24.477Z,33.57
2019-01-25T13:53:52.165Z,34.13
2019-01-25T13:56:19.925Z,33.07
2019-01-25T13:58:47.649Z,33.67
2019-01-25T14:01:15.506Z,31.97
2019-01-25T14:03:43.356Z,30.90
2019-01-25T14:06:11.765Z,32.67
2019-01-25T14:08:40.776Z,32.07
2019-01-25T14:11:08.914Z,30.60
2019-01-25T14:13:36.964Z,31.23
2019-01-25T14:16:05.147Z,28.57
2019-01-25T14:18:33.086Z,29.13
2019-01-25T14:21:01.018Z,30.30
2019-01-25T14:23:29.333Z,29.43
2019-01-25T14:25:58.605Z,30.03
2019-01-25T14:28:26.684Z,20.40
2019-01-25T14:30:54.813Z,16.90
2019-01-25T14:33:22.533Z,13.90
2019-01-25T14:35:52.088Z,13.27
2019-01-25T14:38:19.789Z,13.23
2019-01-25T14:40:47.483Z,13.20
2019-01-25T14:43:15.210Z,13.43
2019-01-25T14:45:42.864Z,12.30
2019-01-25T14:48:10.646Z,12.43
2019-01-25T14:50:38.671Z,13.50
2019-01-25T14:53:07.242Z,13.67
2019-01-25T14:55:34.995Z,13.33
2019-01-25T14:58:02.675Z,13.50
2019-01-25T15:00:30.231Z,12.63
2019-01-25T15:02:57.935Z,12.83
2019-01-25T15:05:25.539Z,13.30
2019-01-25T15:07:53.230Z,13.17
2019-01-25T15:10:23.083Z,13.43
2019-01-25T15:12:52.404Z,13.37
2019-01-25T15:15:21.469Z,13.23
2019-01-25T15:17:49.630Z,12.73
2019-01-25T15:20:19.297Z,12.63
2019-01-25T15:22:47.260Z,13.83
2019-01-25T15:25:15.241Z,13.33
2019-01-25T15:27:43.351Z,13.80
2019-01-25T15:30:16.755Z,13.47
2019-01-25T15:32:44.790Z,13.20
2019-01-25T15:35:13.956Z,13.23
2019-01-25T15:37:41.756Z,13.77
2019-01-25T15:40:11.326Z,13.07
2019-01-25T15:42:39.453Z,13.17
2019-01-25T15:45:09.921Z,13.37
2019-01-25T15:47:37.755Z,13.30
2019-01-25T15:50:10.009Z,13.80
2019-01-25T15:52:37.575Z,14.33
2019-01-25T15:55:05.819Z,14.43
2019-01-25T15:57:33.490Z,14.17
2019-01-25T16:00:01.138Z,14.00
2019-01-25T16:02:28.884Z,14.30
2019-01-25T16:04:56.557Z,14.43
2019-01-25T16:07:24.156Z,13.50
2019-01-25T16:09:51.879Z,14.67
2019-01-25T16:12:19.600Z,14.07
2019-01-25T16:14:47.338Z,14.80
2019-01-25T16:17:15.592Z,13.90
2019-01-25T16:19:43.554Z,13.60
2019-01-25T16:22:11.488Z,14.87
2019-01-25T16:24:39.547Z,14.60
2019-01-25T16:27:07.142Z,14.53
2019-01-25T16:29:34.817Z,16.47
2019-01-25T16:32:02.411Z,17.80
2019-01-25T16:34:30.015Z,15.83
2019-01-25T16:36:57.705Z,16.50
2019-01-25T16:39:25.343Z,18.67
2019-01-25T16:41:52.963Z,25.80
2019-01-25T16:44:25.574Z,27.63
2019-01-25T16:46:50.171Z,18.00
2019-01-25T16:49:17.879Z,37.37
2019-01-25T16:51:45.465Z,42.37
2019-01-25T16:54:13.181Z,42.30
2019-01-25T16:56:40.983Z,44.67
2019-01-25T16:59:09.009Z,48.60
2019-01-25T17:01:36.980Z,47.00
2019-01-25T17:04:05.004Z,47.33
2019-01-25T17:06:32.959Z,47.00
2019-01-25T17:09:00.965Z,49.00
2019-01-25T17:11:29.039Z,44.53
2019-01-25T17:13:57.227Z,45.57
2019-01-25T17:16:25.320Z,46.17
2019-01-25T17:18:53.434Z,43.63
2019-01-25T17:21:21.344Z,43.80
2019-01-25T17:23:49.420Z,48.73
2019-01-25T17:26:17.803Z,44.30
2019-01-25T17:28:46.017Z,45.67
2019-01-25T17:31:13.758Z,46.60
2019-01-25T17:33:42.695Z,47.53
2019-01-25T17:36:10.431Z,47.40
2019-01-25T17:38:38.328Z,47.27
2019-01-25T17:41:06.089Z,46.33
2019-01-25T17:43:33.837Z,47.43
2019-01-25T17:46:01.395Z,50.23
2019-01-25T17:48:29.129Z,49.53
2019-01-25T17:50:56.729Z,46.13
2019-01-25T17:53:24.451Z,47.00
2019-01-25T17:55:54.610Z,44.33
2019-01-25T17:58:22.256Z,48.00
2019-01-25T18:00:54.431Z,47.30
2019-01-25T18:03:24.561Z,45.23
2019-01-25T18:05:52.167Z,42.07
2019-01-25T18:08:19.769Z,43.00
2019-01-25T18:10:48.464Z,42.97
2019-01-25T18:13:16.168Z,45.70
2019-01-25T18:15:43.832Z,41.20
2019-01-25T18:18:11.692Z,37.83
2019-01-25T18:20:39.365Z,40.17
2019-01-25T18:23:07.073Z,37.20
2019-01-25T18:25:38.423Z,35.90
2019-01-25T18:28:07.788Z,33.53
2019-01-25T18:30:42.382Z,31.77
2019-01-25T18:33:10.005Z,30.83
2019-01-25T18:35:37.602Z,29.97
2019-01-25T18:38:05.437Z,27.20
2019-01-25T18:40:36.011Z,25.17
2019-01-25T18:43:04.231Z,26.17
2019-01-25T18:45:31.910Z,24.43
2019-01-25T18:47:59.680Z,23.97
2019-01-25T18:50:27.361Z,24.70
2019-01-25T18:52:55.051Z,23.40
2019-01-25T18:55:22.652Z,23.43
2019-01-25T18:57:50.328Z,22.20
2019-01-25T19:00:18.901Z,21.97
2019-01-25T19:02:46.532Z,21.67
2019-01-25T19:05:14.736Z,19.97
2019-01-25T19:07:42.404Z,19.87
2019-01-25T19:10:13.324Z,19.73
2019-01-25T19:12:40.942Z,18.80
2019-01-25T19:15:10.590Z,18.17
2019-01-25T19:17:38.401Z,18.20
2019-01-25T19:20:08.412Z,16.20
2019-01-25T19:22:36.104Z,16.93
2019-01-25T19:25:04.624Z,16.53
2019-01-25T19:27:32.332Z,15.40
2019-01-25T19:29:59.897Z,14.73
2019-01-25T19:32:27.706Z,14.67
2019-01-25T19:34:55.326Z,16.30
2019-01-25T19:37:23.080Z,16.07
2019-01-25T19:39:50.762Z,16.40
2019-01-25T19:42:18.565Z,15.47
2019-01-25T19:44:46.295Z,14.20
2019-01-25T19:47:14.050Z,15.10
2019-01-25T19:49:41.799Z,15.00
2019-01-25T19:52:09.818Z,16.53
2019-01-25T19:54:37.625Z,15.10
2019-01-25T19:57:05.287Z,15.93
2019-01-25T19:59:33.063Z,14.87
2019-01-25T20:02:00.917Z,16.07
2019-01-25T20:04:28.765Z,14.70
2019-01-25T20:06:56.498Z,15.40
2019-01-25T20:09:24.135Z,14.53
2019-01-25T20:11:51.829Z,14.93
2019-01-25T20:14:19.522Z,14.33
2019-01-25T20:16:47.271Z,15.03
2019-01-25T20:19:15.112Z,15.13
2019-01-25T20:21:44.019Z,14.07
2019-01-25T20:24:11.830Z,15.10
2019-01-25T20:26:39.529Z,15.27
2019-01-25T20:29:10.531Z,14.27
2019-01-25T20:31:38.390Z,14.50
2019-01-25T20:34:06.069Z,16.00
2019-01-25T20:36:34.124Z,14.07
2019-01-25T20:39:03.707Z,14.20
2019-01-25T20:41:33.142Z,14.33
2019-01-25T20:44:00.906Z,15.03
2019-01-25T20:46:28.628Z,14.83
2019-01-25T20:48:56.424Z,14.43
2019-01-25T20:51:24.289Z,14.07
2019-01-25T20:53:52.105Z,13.23
2019-01-25T20:56:19.970Z,13.77
2019-01-25T20:58:47.751Z,13.40
2019-01-25T21:01:15.784Z,13.90
2019-01-25T21:03:43.482Z,13.27
2019-01-25T21:06:11.534Z,14.83
2019-01-25T21:08:39.201Z,13.93
2019-01-25T21:11:07.052Z,14.10
2019-01-25T21:13:34.871Z,13.13
2019-01-25T21:16:02.609Z,13.13
2019-01-25T21:18:30.330Z,14.47
2019-01-25T21:20:58.038Z,13.47
2019-01-25T21:23:25.640Z,13.87
2019-01-25T21:25:53.367Z,13.63
2019-01-25T21:28:20.969Z,12.77
2019-01-25T21:30:48.700Z,12.57
2019-01-25T21:33:16.281Z,12.80
2019-01-25T21:35:43.989Z,13.20
2019-01-25T21:38:11.715Z,13.43
2019-01-25T21:40:39.536Z,13.20
2019-01-25T21:43:07.169Z,13.23
2019-01-25T21:45:42.661Z,12.30
2019-01-25T21:48:11.338Z,11.60
2019-01-25T21:50:40.402Z,12.03
2019-01-25T21:53:08.140Z,12.70
2019-01-25T21:55:35.892Z,12.70
2019-01-25T21:58:05.637Z,12.97
2019-01-25T22:00:33.957Z,12.63
2019-01-25T22:03:01.786Z,11.97
2019-01-25T22:05:29.660Z,14.03
2019-01-25T22:07:58.548Z,12.57
2019-01-25T22:10:38.191Z,12.63
2019-01-25T22:13:05.908Z,11.93
2019-01-25T22:15:34.752Z,11.17
2019-01-25T22:18:02.743Z,12.07
2019-01-25T22:20:30.534Z,13.53
2019-01-25T22:22:58.315Z,21.33
2019-01-25T22:25:26.017Z,19.77
2019-01-25T22:27:55.148Z,12.73
2019-01-25T22:30:23.607Z,11.60
2019-01-25T22:32:51.313Z,11.90
2019-01-25T22:35:19.220Z,11.67
2019-01-25T22:37:47.179Z,11.80
2019-01-25T22:40:17.172Z,11.40
2019-01-25T22:42:44.757Z,11.50
2019-01-25T22:45:14.433Z,12.50
2019-01-25T22:47:42.070Z,11.70
2019-01-25T22:50:13.176Z,12.43
2019-01-25T22:52:40.789Z,12.23
2019-01-25T22:55:10.446Z,12.27
2019-01-25T22:57:38.166Z,11.57
2019-01-25T23:00:51.504Z,10.57
2019-01-25T23:03:22.664Z,12.17
2019-01-25T23:06:44.109Z,10.87
2019-01-25T23:09:15.194Z,12.07
2019-01-25T23:11:42.914Z,11.50
2019-01-25T23:14:10.542Z,11.87
2019-01-25T23:16:40.035Z,11.70
2019-01-25T23:19:07.783Z,11.30
2019-01-25T23:21:35.505Z,11.83
2019-01-25T23:24:03.349Z,11.30
2019-01-25T23:26:31.017Z,12.07
2019-01-25T23:28:58.567Z,11.47
2019-01-25T23:31:27.219Z,12.10
2019-01-25T23:33:54.821Z,11.00
2019-01-25T23:36:22.562Z,11.10
2019-01-25T23:38:50.230Z,11.23
2019-01-25T23:41:17.930Z,11.77
2019-01-25T23:43:45.628Z,10.77
2019-01-25T23:46:13.970Z,10.57
2019-01-25T23:48:41.968Z,10.80
2019-01-25T23:51:09.649Z,11.73
2019-01-25T23:53:38.196Z,12.13
2019-01-25T23:56:05.864Z,11.30
2019-01-25T23:58:33.439Z,10.70
